Map

Track Data

SID SEASON NUMBER BASIN SUBBASIN NAME ISO_TIME NATURE LAT LON WMO_WIND WMO_PRES WMO_AGENCY TRACK_TYPE DIST2LAND LANDFALL IFLAG USA_AGENCY USA_ATCF_ID USA_LAT USA_LON USA_RECORD USA_STATUS USA_WIND USA_PRES USA_SSHS USA_R34_NE USA_R34_SE USA_R34_SW USA_R34_NW USA_R50_NE USA_R50_SE USA_R50_SW USA_R50_NW USA_R64_NE USA_R64_SE USA_R64_SW USA_R64_NW USA_POCI USA_ROCI USA_RMW USA_EYE TOKYO_LAT TOKYO_LON TOKYO_GRADE TOKYO_WIND TOKYO_PRES TOKYO_R50_DIR TOKYO_R50_LONG TOKYO_R50_SHORT TOKYO_R30_DIR TOKYO_R30_LONG TOKYO_R30_SHORT TOKYO_LAND CMA_LAT CMA_LON CMA_CAT CMA_WIND CMA_PRES HKO_LAT HKO_LON HKO_CAT HKO_WIND HKO_PRES NEWDELHI_LAT NEWDELHI_LON NEWDELHI_GRADE NEWDELHI_WIND NEWDELHI_PRES NEWDELHI_CI NEWDELHI_DP NEWDELHI_POCI REUNION_LAT REUNION_LON REUNION_TYPE REUNION_WIND REUNION_PRES REUNION_TNUM REUNION_CI REUNION_RMW REUNION_R34_NE REUNION_R34_SE REUNION_R34_SW REUNION_R34_NW REUNION_R50_NE REUNION_R50_SE REUNION_R50_SW REUNION_R50_NW REUNION_R64_NE REUNION_R64_SE REUNION_R64_SW REUNION_R64_NW BOM_LAT BOM_LON BOM_TYPE BOM_WIND BOM_PRES BOM_TNUM BOM_CI BOM_RMW BOM_R34_NE BOM_R34_SE BOM_R34_SW BOM_R34_NW BOM_R50_NE BOM_R50_SE BOM_R50_SW BOM_R50_NW BOM_R64_NE BOM_R64_SE BOM_R64_SW BOM_R64_NW BOM_ROCI BOM_POCI BOM_EYE BOM_POS_METHOD BOM_PRES_METHOD NADI_LAT NADI_LON NADI_CAT NADI_WIND NADI_PRES WELLINGTON_LAT WELLINGTON_LON WELLINGTON_WIND WELLINGTON_PRES DS824_LAT DS824_LON DS824_STAGE DS824_WIND DS824_PRES TD9636_LAT TD9636_LON TD9636_STAGE TD9636_WIND TD9636_PRES TD9635_LAT TD9635_LON TD9635_WIND TD9635_PRES TD9635_ROCI NEUMANN_LAT NEUMANN_LON NEUMANN_CLASS NEUMANN_WIND NEUMANN_PRES MLC_LAT MLC_LON MLC_CLASS MLC_WIND MLC_PRES USA_GUST BOM_GUST BOM_GUST_PER REUNION_GUST REUNION_GUST_PER USA_SEAHGT USA_SEARAD_NE USA_SEARAD_SE USA_SEARAD_SW USA_SEARAD_NW STORM_SPEED STORM_DIR
1857021S17059 1857 2 SI MM NOT_NAMED 1857-01-21 06:00:00 NR -16.6000 58.9000 reunion main 411 411 _____O________ -1 -16.6000 58.9000 99 9.90000 1 233
1857021S17059 1857 2 SI MM NOT_NAMED 1857-01-21 09:00:00 NR -16.6240 58.8640 main 411 397 _____P________ -1 -16.6240 58.8640 99 1 235
1857021S17059 1857 2 SI MM NOT_NAMED 1857-01-21 12:00:00 NR -16.6552 58.8219 main 397 397 _____P________ -1 -16.6552 58.8219 99 1 230
1857021S17059 1857 2 SI MM NOT_NAMED 1857-01-21 15:00:00 NR -16.7009 58.7677 main 397 383 _____P________ -1 -16.7009 58.7677 99 2 226
1857021S17059 1857 2 SI MM NOT_NAMED 1857-01-21 18:00:00 NR -16.7684 58.6952 main 383 370 _____P________ -1 -16.7684 58.6952 99 2 225
1857021S17059 1857 2 SI MM NOT_NAMED 1857-01-21 21:00:00 NR -16.8648 58.5985 main 370 356 _____P________ -1 -16.8648 58.5985 99 3 223
1857021S17059 1857 2 SI MM NOT_NAMED 1857-01-22 00:00:00 NR -16.9974 58.4712 main 356 330 _____P________ -1 -16.9974 58.4712 99 4 222
1857021S17059 1857 2 SI MM NOT_NAMED 1857-01-22 03:00:00 NR -17.1734 58.3072 main 330 304 _____P________ -1 -17.1734 58.3072 99 5 221
1857021S17059 1857 2 SI MM NOT_NAMED 1857-01-22 06:00:00 NR -17.4000 58.1000 reunion main 304 269 _____O________ -1 -17.4000 58.1000 99 9.90000 7 221
1857021S17059 1857 2 SI MM NOT_NAMED 1857-01-22 09:00:00 NR -17.6810 57.8465 main 268 234 _____P________ -1 -17.6810 57.8465 99 8 220
1857021S17059 1857 2 SI MM NOT_NAMED 1857-01-22 12:00:00 NR -18.0069 57.5564 main 234 202 _____P________ -1 -18.0069 57.5564 99 9 220
1857021S17059 1857 2 SI MM NOT_NAMED 1857-01-22 15:00:00 NR -18.3651 57.2430 main 192 165 _____P________ -1 -18.3651 57.2430 99 10 219
1857021S17059 1857 2 SI MM NOT_NAMED 1857-01-22 18:00:00 NR -18.7430 56.9196 main 168 139 _____P________ -1 -18.7430 56.9196 99 10 219
1857021S17059 1857 2 SI MM NOT_NAMED 1857-01-22 21:00:00 NR -19.1278 56.5997 main 146 137 _____P________ -1 -19.1278 56.5997 99 10 218
1857021S17059 1857 2 SI MM NOT_NAMED 1857-01-23 00:00:00 NR -19.5072 56.2971 main 142 137 _____P________ -1 -19.5072 56.2971 99 9 216
1857021S17059 1857 2 SI MM NOT_NAMED 1857-01-23 03:00:00 NR -19.8687 56.0258 main 126 90 _____P________ -1 -19.8687 56.0258 99 8 214
1857021S17059 1857 2 SI MM NOT_NAMED 1857-01-23 06:00:00 NR -20.2000 55.8000 reunion main 90 67 _____O________ -1 -20.2000 55.8000 99 9.90000 7 212
1857021S17059 1857 2 SI MM NOT_NAMED 1857-01-23 09:00:00 NR -20.4473 55.6415 main 67 33 _____P________ -1 -20.4473 55.6415 99 5 209
1857021S17059 1857 2 SI MM NOT_NAMED 1857-01-23 12:00:00 NR -20.6686 55.5225 main 33 11 _____P________ -1 -20.6686 55.5225 99 5 204
1857021S17059 1857 2 SI MM NOT_NAMED 1857-01-23 15:00:00 NR -20.8701 55.4406 main 11 0 _____P________ -1 -20.8701 55.4406 99 4 197
1857021S17059 1857 2 SI MM NOT_NAMED 1857-01-23 18:00:00 NR -21.0582 55.3933 main 0 0 _____P________ -1 -21.0582 55.3933 99 4 189
1857021S17059 1857 2 SI MM NOT_NAMED 1857-01-23 21:00:00 NR -21.2391 55.3781 main 0 0 _____P________ -1 -21.2391 55.3781 99 4 0
1857021S17059 1857 2 SI MM NOT_NAMED 1857-01-24 00:00:00 NR -21.4189 55.3925 main 11 11 _____P________ -1 -21.4189 55.3925 99 4 171
1857021S17059 1857 2 SI MM NOT_NAMED 1857-01-24 03:00:00 NR -21.6038 55.4340 main 30 30 _____P________ -1 -21.6038 55.4340 99 4 166
1857021S17059 1857 2 SI MM NOT_NAMED 1857-01-24 06:00:00 NR -21.8000 55.5000 reunion main 45 45 _____O________ -1 -21.8000 55.5000 99 9.90000 5 164
1857021S17059 1857 2 SI MM NOT_NAMED 1857-01-24 09:00:00 NR -22.0544 55.5658 main 78 78 _____P________ -1 -22.0544 55.5658 99 5 164
1857021S17059 1857 2 SI MM NOT_NAMED 1857-01-24 12:00:00 NR -22.3201 55.6605 main 101 101 _____P________ -1 -22.3201 55.6605 99 6 160
1857021S17059 1857 2 SI MM NOT_NAMED 1857-01-24 15:00:00 NR -22.5907 55.7801 main 135 135 _____P________ -1 -22.5907 55.7801 99 6 156
1857021S17059 1857 2 SI MM NOT_NAMED 1857-01-24 18:00:00 NR -22.8601 55.9202 main 170 170 _____P________ -1 -22.8601 55.9202 99 6 153
1857021S17059 1857 2 SI MM NOT_NAMED 1857-01-24 21:00:00 NR -23.1220 56.0766 main 196 196 _____P________ -1 -23.1220 56.0766 99 6 150
1857021S17059 1857 2 SI MM NOT_NAMED 1857-01-25 00:00:00 NR -23.3701 56.2450 main 231 231 _____P________ -1 -23.3701 56.2450 99 6 146
1857021S17059 1857 2 SI MM NOT_NAMED 1857-01-25 03:00:00 NR -23.5982 56.4209 main 259 259 _____P________ -1 -23.5982 56.4209 99 5 143
1857021S17059 1857 2 SI MM NOT_NAMED 1857-01-25 06:00:00 NR -23.8000 56.6000 reunion main 287 287 _____O________ -1 -23.8000 56.6000 99 9.90000 5 139
1857021S17059 1857 2 SI MM NOT_NAMED 1857-01-25 09:00:00 NR -23.9711 56.7784 main 315 315 _____P________ -1 -23.9711 56.7784 99 5 134
1857021S17059 1857 2 SI MM NOT_NAMED 1857-01-25 12:00:00 NR -24.1139 56.9555 main 334 334 _____P________ -1 -24.1139 56.9555 99 4 129
1857021S17059 1857 2 SI MM NOT_NAMED 1857-01-25 15:00:00 NR -24.2323 57.1314 main 348 348 _____P________ -1 -24.2323 57.1314 99 4 124
1857021S17059 1857 2 SI MM NOT_NAMED 1857-01-25 18:00:00 NR -24.3303 57.3063 main 367 367 _____P________ -1 -24.3303 57.3063 99 4 119
1857021S17059 1857 2 SI MM NOT_NAMED 1857-01-25 21:00:00 NR -24.4121 57.4804 main 387 387 _____P________ -1 -24.4121 57.4804 99 4 115
1857021S17059 1857 2 SI MM NOT_NAMED 1857-01-26 00:00:00 NR -24.4816 57.6539 main 407 407 _____P________ -1 -24.4816 57.6539 99 3 112
1857021S17059 1857 2 SI MM NOT_NAMED 1857-01-26 03:00:00 NR -24.5429 57.8270 main 412 412 _____P________ -1 -24.5429 57.8270 99 3 111
1857021S17059 1857 2 SI MM NOT_NAMED 1857-01-26 06:00:00 NR -24.6000 58.0000 reunion main 432 _____O________ -1 -24.6000 58.0000 99 9.90000 3 110

About IBTrACS Database

This database is a web-friendly format of International Best Track Archive for Climate Stewardship (IBTrACS), a global best track data archive curated by NOAA dating back to 1842.

Updated: 2021-12-03